Time;durP1;ratioP1;P1;durP2;ratioP2;P2;SDS_P1;SDS_P2;PMS_P1;PMS_P2;Temp;Humidity;BMP_temperature;BMP_pressure;BME280_temperature;BME280_humidity;BME280_pressure;Samples;Min_cycle;Max_cycle;Signal;HPM_P1;HPM_P2
2021/09/05 00:01:08;;;;;;;8.82;4.22;;;;;;;;;;143734;579;46020;-88
2021/09/05 00:03:34;;;;;;;4.55;3.87;;;;;;;;;;143731;565;46022;-88
2021/09/05 00:06:01;;;;;;;3.90;3.50;;;;;;;;;;143732;669;46013;-87
2021/09/05 00:08:31;;;;;;;6.28;4.93;;;;;;;;;;143738;632;46014;-86
2021/09/05 00:10:58;;;;;;;6.10;3.95;;;;;;;;;;143736;627;46020;-87
2021/09/05 00:13:24;;;;;;;7.55;3.95;;;;;;;;;;143733;570;46022;-89
2021/09/05 00:15:51;;;;;;;7.55;4.07;;;;;;;;;;143733;600;46020;-85
2021/09/05 00:18:18;;;;;;;6.53;4.10;;;;;;;;;;143735;641;46020;-87
2021/09/05 00:20:45;;;;;;;5.93;4.87;;;;;;;;;;143735;596;46021;-86
2021/09/05 00:23:14;;;;;;;7.87;4.20;;;;;;;;;;143734;635;46023;-87
2021/09/05 00:25:40;;;;;;;5.70;4.60;;;;;;;;;;143733;569;46012;-86
2021/09/05 00:28:07;;;;;;;12.48;4.43;;;;;;;;;;143738;579;46019;-88
2021/09/05 00:30:34;;;;;;;4.30;3.90;;;;;;;;;;143736;581;46012;-88
2021/09/05 00:33:06;;;;;;;5.47;3.85;;;;;;;;;;143734;576;46022;-87
2021/09/05 00:35:34;;;;;;;5.10;4.32;;;;;;;;;;143733;594;46013;-87
2021/09/05 00:38:01;;;;;;;5.85;4.20;;;;;;;;;;143734;594;46020;-87
2021/09/05 00:40:27;;;;;;;5.72;3.62;;;;;;;;;;143734;564;47020;-88
2021/09/05 00:42:54;;;;;;;9.25;4.85;;;;;;;;;;143734;605;46022;-86
2021/09/05 00:45:21;;;;;;;11.65;4.40;;;;;;;;;;143732;579;46012;-88
2021/09/05 00:47:48;;;;;;;5.20;4.28;;;;;;;;;;143736;577;46020;-87
2021/09/05 00:50:15;;;;;;;5.82;4.50;;;;;;;;;;143737;630;46012;-87
2021/09/05 00:52:42;;;;;;;7.50;4.03;;;;;;;;;;143732;614;46913;-89
2021/09/05 00:55:09;;;;;;;8.52;4.68;;;;;;;;;;143734;569;46012;-85
2021/09/05 00:57:36;;;;;;;5.95;4.12;;;;;;;;;;143735;592;46044;-84
2021/09/05 01:00:03;;;;;;;5.18;4.25;;;;;;;;;;143738;579;47012;-85
2021/09/05 01:02:30;;;;;;;7.70;4.55;;;;;;;;;;143733;613;46020;-85
2021/09/05 01:04:56;;;;;;;5.72;4.03;;;;;;;;;;143734;571;46012;-86
2021/09/05 01:07:24;;;;;;;7.47;4.45;;;;;;;;;;143737;577;46020;-87
2021/09/05 01:09:50;;;;;;;5.03;3.85;;;;;;;;;;143738;595;46012;-85
2021/09/05 01:12:17;;;;;;;5.32;4.18;;;;;;;;;;143731;599;47022;-86
2021/09/05 01:14:44;;;;;;;9.10;4.72;;;;;;;;;;143733;610;46916;-83
2021/09/05 01:17:12;;;;;;;5.43;4.22;;;;;;;;;;143734;597;47020;-86
2021/09/05 01:19:38;;;;;;;7.37;4.87;;;;;;;;;;143738;572;46012;-86
2021/09/05 01:22:05;;;;;;;4.40;4.00;;;;;;;;;;143735;665;46023;-86
2021/09/05 01:24:32;;;;;;;8.02;4.03;;;;;;;;;;143733;613;46012;-85
2021/09/05 01:26:59;;;;;;;8.05;4.72;;;;;;;;;;143737;590;46021;-86
2021/09/05 01:29:26;;;;;;;4.43;3.90;;;;;;;;;;143737;566;46012;-84
2021/09/05 01:31:55;;;;;;;7.65;3.90;;;;;;;;;;143735;565;46022;-86
2021/09/05 01:34:23;;;;;;;6.35;3.55;;;;;;;;;;143735;566;46012;-87
2021/09/05 01:36:52;;;;;;;6.87;4.30;;;;;;;;;;143735;631;46021;-89
2021/09/05 01:39:20;;;;;;;6.87;4.22;;;;;;;;;;143736;607;46012;-86
2021/09/05 01:41:49;;;;;;;5.18;4.12;;;;;;;;;;143738;595;46020;-83
2021/09/05 01:44:21;;;;;;;4.85;4.35;;;;;;;;;;143740;571;45021;-83
2021/09/05 01:46:49;;;;;;;11.65;4.55;;;;;;;;;;143736;564;46020;-83
2021/09/05 01:49:22;;;;;;;7.80;4.60;;;;;;;;;;143737;588;46013;-83
2021/09/05 01:51:49;;;;;;;;;;;;;;;;;;143742;981;45023;-84
2021/09/05 01:54:18;;;;;;;6.97;4.37;;;;;;;;;;143748;589;46010;-83
2021/09/05 01:56:49;;;;;;;5.53;3.67;;;;;;;;;;143737;595;46020;-83
2021/09/05 01:59:17;;;;;;;4.53;3.80;;;;;;;;;;143740;597;45028;-83
2021/09/05 02:01:44;;;;;;;5.53;3.97;;;;;;;;;;143736;651;46022;-83
2021/09/05 02:04:13;;;;;;;5.72;4.18;;;;;;;;;;143735;611;46010;-83
2021/09/05 02:06:41;;;;;;;7.97;3.95;;;;;;;;;;143738;613;46021;-84
2021/09/05 02:09:10;;;;;;;6.15;4.20;;;;;;;;;;143739;569;46010;-86
2021/09/05 02:11:39;;;;;;;7.57;4.53;;;;;;;;;;143738;608;46022;-83
2021/09/05 02:14:10;;;;;;;5.53;4.00;;;;;;;;;;143739;608;45028;-88
2021/09/05 02:16:40;;;;;;;6.68;4.32;;;;;;;;;;143740;579;45020;-88
2021/09/05 02:19:29;;;;;;;5.10;3.80;;;;;;;;;;143740;618;45020;-88
2021/09/05 02:21:57;;;;;;;4.65;4.12;;;;;;;;;;143740;575;45023;-87
2021/09/05 02:24:30;;;;;;;7.12;4.22;;;;;;;;;;143739;569;45028;-85
2021/09/05 02:27:15;;;;;;;12.95;5.30;;;;;;;;;;143740;615;45021;-87
2021/09/05 02:29:54;;;;;;;6.43;4.45;;;;;;;;;;143741;643;45021;-85
2021/09/05 02:32:48;;;;;;;8.85;4.57;;;;;;;;;;143741;605;45022;-87
2021/09/05 02:35:42;;;;;;;8.38;4.78;;;;;;;;;;143738;564;45021;-85
2021/09/05 02:38:15;;;;;;;7.45;4.97;;;;;;;;;;143738;661;46020;-86
2021/09/05 02:40:51;;;;;;;4.80;3.97;;;;;;;;;;143742;575;45020;-87
2021/09/05 02:43:25;;;;;;;4.40;4.00;;;;;;;;;;143737;643;45023;-86
2021/09/05 02:45:57;;;;;;;4.50;4.00;;;;;;;;;;143739;569;45025;-86
2021/09/05 02:48:29;;;;;;;8.00;4.62;;;;;;;;;;143740;621;45020;-87
2021/09/05 02:51:00;;;;;;;6.12;4.18;;;;;;;;;;143740;578;46011;-87
2021/09/05 02:53:29;;;;;;;8.15;4.70;;;;;;;;;;143737;590;46020;-86
2021/09/05 02:55:56;;;;;;;4.65;3.95;;;;;;;;;;143736;588;46012;-88
2021/09/05 02:58:23;;;;;;;7.87;4.45;;;;;;;;;;143738;601;46021;-87
2021/09/05 03:00:51;;;;;;;5.40;4.47;;;;;;;;;;143737;647;46020;-86
2021/09/05 03:03:27;;;;;;;7.80;4.07;;;;;;;;;;143736;615;46020;-88
2021/09/05 03:05:54;;;;;;;8.15;4.95;;;;;;;;;;143735;612;46010;-86
2021/09/05 03:08:25;;;;;;;4.85;3.83;;;;;;;;;;143735;590;46018;-87
2021/09/05 03:10:52;;;;;;;10.10;4.85;;;;;;;;;;143738;579;46010;-86
2021/09/05 03:13:27;;;;;;;11.88;4.90;;;;;;;;;;143735;633;46014;-86
2021/09/05 03:15:59;;;;;;;6.35;3.78;;;;;;;;;;143735;579;46010;-87
2021/09/05 03:18:34;;;;;;;5.45;4.35;;;;;;;;;;143735;575;46020;-86
2021/09/05 03:21:03;;;;;;;9.07;4.25;;;;;;;;;;143738;566;46048;-86
2021/09/05 03:23:32;;;;;;;6.95;4.12;;;;;;;;;;143734;580;46022;-86
2021/09/05 03:25:59;;;;;;;4.82;4.22;;;;;;;;;;143733;564;46010;-86
2021/09/05 03:28:25;;;;;;;5.45;4.15;;;;;;;;;;143737;607;46021;-87
2021/09/05 03:30:52;;;;;;;10.18;4.55;;;;;;;;;;143739;583;46010;-87
2021/09/05 03:33:23;;;;;;;7.28;4.90;;;;;;;;;;143734;608;47022;-86
2021/09/05 03:35:52;;;;;;;6.47;4.60;;;;;;;;;;143737;587;46010;-88
2021/09/05 03:38:20;;;;;;;9.40;4.70;;;;;;;;;;143735;614;46020;-86
2021/09/05 03:40:47;;;;;;;6.55;5.00;;;;;;;;;;143737;588;46011;-86
2021/09/05 03:43:14;;;;;;;11.02;4.70;;;;;;;;;;143737;581;46023;-88
2021/09/05 03:45:40;;;;;;;6.15;4.80;;;;;;;;;;143735;583;46915;-85
2021/09/05 03:48:10;;;;;;;5.37;4.30;;;;;;;;;;143736;603;46020;-85
2021/09/05 03:50:39;;;;;;;6.37;4.60;;;;;;;;;;143736;624;47018;-85
2021/09/05 03:53:08;;;;;;;6.32;4.72;;;;;;;;;;143736;566;46020;-86
2021/09/05 03:55:45;;;;;;;8.35;4.80;;;;;;;;;;143735;585;46010;-86
2021/09/05 03:58:13;;;;;;;6.75;4.43;;;;;;;;;;143734;569;46021;-87
2021/09/05 04:00:40;;;;;;;7.50;5.03;;;;;;;;;;143738;598;46018;-86
2021/09/05 04:03:15;;;;;;;9.23;4.65;;;;;;;;;;143734;572;46022;-86
2021/09/05 04:05:52;;;;;;;6.32;4.25;;;;;;;;;;143735;601;46010;-85
2021/09/05 04:08:30;;;;;;;6.37;4.45;;;;;;;;;;143735;595;46020;-86
2021/09/05 04:11:08;;;;;;;10.57;4.45;;;;;;;;;;143738;617;46020;-87
2021/09/05 04:13:37;;;;;;;7.53;4.47;;;;;;;;;;143736;571;46023;-85
2021/09/05 04:16:07;;;;;;;6.55;4.18;;;;;;;;;;143735;569;46010;-86
2021/09/05 04:18:34;;;;;;;6.20;4.37;;;;;;;;;;143737;569;46013;-86
2021/09/05 04:21:00;;;;;;;6.80;4.62;;;;;;;;;;143735;596;46010;-86
2021/09/05 04:23:32;;;;;;;6.55;4.53;;;;;;;;;;143735;564;46022;-86
2021/09/05 04:25:59;;;;;;;8.10;5.22;;;;;;;;;;143735;679;46021;-88
2021/09/05 04:28:25;;;;;;;8.57;4.57;;;;;;;;;;143735;580;46021;-87
2021/09/05 04:30:52;;;;;;;7.95;4.75;;;;;;;;;;143736;602;46010;-86
2021/09/05 04:33:25;;;;;;;10.45;4.35;;;;;;;;;;143735;566;46022;-85
2021/09/05 04:35:53;;;;;;;6.95;4.28;;;;;;;;;;143735;627;46020;-85
2021/09/05 04:38:20;;;;;;;9.77;5.53;;;;;;;;;;143738;577;46012;-87
2021/09/05 04:40:50;;;;;;;8.48;4.43;;;;;;;;;;143736;581;47010;-85
2021/09/05 04:43:22;;;;;;;6.35;4.12;;;;;;;;;;143737;581;46012;-86
2021/09/05 04:45:49;;;;;;;7.07;4.50;;;;;;;;;;143736;583;46010;-86
2021/09/05 04:48:16;;;;;;;9.95;5.15;;;;;;;;;;143734;577;46020;-86
2021/09/05 04:50:42;;;;;;;6.18;4.50;;;;;;;;;;143736;656;46010;-86
2021/09/05 04:53:09;;;;;;;9.15;5.03;;;;;;;;;;143734;574;46022;-86
2021/09/05 04:55:36;;;;;;;6.78;4.57;;;;;;;;;;143733;569;46010;-87
2021/09/05 04:58:03;;;;;;;9.35;4.28;;;;;;;;;;143735;613;46021;-87
2021/09/05 05:00:30;;;;;;;9.35;4.68;;;;;;;;;;143737;582;46010;-86
2021/09/05 05:02:59;;;;;;;5.78;4.12;;;;;;;;;;143735;577;46022;-87
2021/09/05 05:05:26;;;;;;;4.78;3.67;;;;;;;;;;143733;564;46010;-86
2021/09/05 05:07:54;;;;;;;5.65;4.68;;;;;;;;;;143736;576;46020;-85
2021/09/05 05:10:22;;;;;;;5.80;4.12;;;;;;;;;;143737;599;46010;-87
2021/09/05 05:12:49;;;;;;;6.28;5.18;;;;;;;;;;143734;593;47023;-86
2021/09/05 05:15:16;;;;;;;7.60;4.40;;;;;;;;;;143733;585;46010;-85
2021/09/05 05:17:43;;;;;;;9.65;4.50;;;;;;;;;;143738;607;46012;-87
2021/09/05 05:20:11;;;;;;;8.20;4.18;;;;;;;;;;143737;564;46010;-87
2021/09/05 05:22:38;;;;;;;6.53;4.55;;;;;;;;;;143735;609;47022;-85
2021/09/05 05:25:09;;;;;;;12.07;5.78;;;;;;;;;;143736;565;46010;-85
2021/09/05 05:27:36;;;;;;;6.62;4.55;;;;;;;;;;143736;607;46021;-86
2021/09/05 05:30:04;;;;;;;7.47;4.62;;;;;;;;;;143737;581;46010;-87
2021/09/05 05:32:31;;;;;;;8.80;4.40;;;;;;;;;;143735;570;46021;-85
2021/09/05 05:34:58;;;;;;;7.85;4.65;;;;;;;;;;143735;602;46010;-85
2021/09/05 05:37:25;;;;;;;6.40;4.55;;;;;;;;;;143734;589;46020;-88
2021/09/05 05:39:52;;;;;;;5.70;3.95;;;;;;;;;;143735;578;46010;-87
2021/09/05 05:42:18;;;;;;;8.27;4.57;;;;;;;;;;143737;573;46014;-86
2021/09/05 05:44:45;;;;;;;7.53;4.62;;;;;;;;;;143733;569;46010;-86
2021/09/05 05:47:15;;;;;;;7.28;3.87;;;;;;;;;;143734;574;46020;-86
2021/09/05 05:49:46;;;;;;;10.50;4.53;;;;;;;;;;143735;595;46010;-89
2021/09/05 05:52:14;;;;;;;5.15;3.92;;;;;;;;;;143732;642;46022;-87
2021/09/05 05:54:41;;;;;;;10.88;5.18;;;;;;;;;;143733;581;46020;-88
2021/09/05 05:57:08;;;;;;;12.48;4.30;;;;;;;;;;143734;566;46021;-86
2021/09/05 05:59:35;;;;;;;9.90;4.15;;;;;;;;;;143735;614;46010;-86
2021/09/05 06:02:04;;;;;;;7.90;4.72;;;;;;;;;;143732;566;46022;-86
2021/09/05 06:04:30;;;;;;;6.12;4.32;;;;;;;;;;143731;583;47011;-84
2021/09/05 06:06:59;;;;;;;8.38;3.87;;;;;;;;;;143733;570;46020;-84
2021/09/05 06:09:26;;;;;;;8.63;4.37;;;;;;;;;;143734;593;46010;-84
2021/09/05 06:11:53;;;;;;;9.57;4.30;;;;;;;;;;143735;596;46022;-85
2021/09/05 06:14:20;;;;;;;5.78;4.62;;;;;;;;;;143731;584;46010;-83
2021/09/05 06:16:47;;;;;;;6.10;4.65;;;;;;;;;;143735;565;46039;-82
2021/09/05 06:19:13;;;;;;;10.60;4.75;;;;;;;;;;143738;574;46021;-86
2021/09/05 06:21:40;;;;;;;13.45;3.60;;;;;;;;;;143732;661;46022;-85
2021/09/05 06:24:07;;;;;;;5.70;4.35;;;;;;;;;;143733;575;46012;-84
2021/09/05 06:26:34;;;;;;;6.30;3.78;;;;;;;;;;143735;660;46021;-84
2021/09/05 06:29:01;;;;;;;9.60;4.45;;;;;;;;;;143734;620;46010;-84
2021/09/05 06:31:28;;;;;;;8.38;3.92;;;;;;;;;;143733;586;46022;-83
2021/09/05 06:33:55;;;;;;;4.65;3.90;;;;;;;;;;143733;571;46021;-82
2021/09/05 06:36:21;;;;;;;9.48;4.30;;;;;;;;;;143735;567;46020;-84
2021/09/05 06:38:50;;;;;;;11.12;4.62;;;;;;;;;;143734;580;46010;-84
2021/09/05 06:41:17;;;;;;;5.70;4.05;;;;;;;;;;143732;720;46022;-85
2021/09/05 06:43:43;;;;;;;7.53;3.95;;;;;;;;;;143731;935;46020;-85
2021/09/05 06:46:10;;;;;;;9.57;4.37;;;;;;;;;;143735;564;46020;-83
2021/09/05 06:48:37;;;;;;;15.02;4.57;;;;;;;;;;143735;773;46011;-86
2021/09/05 06:51:04;;;;;;;6.35;3.33;;;;;;;;;;143732;571;47023;-87
2021/09/05 06:53:32;;;;;;;6.55;3.47;;;;;;;;;;143734;955;46010;-85
2021/09/05 06:55:58;;;;;;;13.65;4.20;;;;;;;;;;143734;613;46013;-85
2021/09/05 06:58:25;;;;;;;7.37;4.62;;;;;;;;;;143734;591;46020;-85
2021/09/05 07:00:53;;;;;;;15.38;4.45;;;;;;;;;;143730;569;47022;-87
2021/09/05 07:03:20;;;;;;;27.08;4.60;;;;;;;;;;143734;792;46010;-85
2021/09/05 07:05:47;;;;;;;10.40;4.40;;;;;;;;;;143731;575;46020;-83
2021/09/05 07:08:13;;;;;;;11.88;4.78;;;;;;;;;;143734;650;46010;-84
2021/09/05 07:10:40;;;;;;;23.27;4.07;;;;;;;;;;143732;721;46022;-85
2021/09/05 07:13:09;;;;;;;10.27;3.78;;;;;;;;;;143731;746;46010;-85
2021/09/05 07:15:36;;;;;;;4.95;3.50;;;;;;;;;;143732;575;47020;-86
2021/09/05 07:18:04;;;;;;;6.25;3.33;;;;;;;;;;143737;564;46021;-84
2021/09/05 07:20:31;;;;;;;6.15;3.62;;;;;;;;;;143736;733;45047;-84
2021/09/05 07:22:58;;;;;;;8.13;3.45;;;;;;;;;;143732;578;46020;-84
2021/09/05 07:25:26;;;;;;;11.30;4.18;;;;;;;;;;143732;620;46021;-84
2021/09/05 07:27:54;;;;;;;7.85;3.80;;;;;;;;;;143735;815;46010;-85
2021/09/05 07:30:22;;;;;;;4.75;4.03;;;;;;;;;;143731;597;47020;-84
2021/09/05 07:32:49;;;;;;;5.55;3.33;;;;;;;;;;143732;589;46010;-84
2021/09/05 07:35:16;;;;;;;5.35;3.47;;;;;;;;;;143733;781;47020;-84
2021/09/05 07:37:47;;;;;;;13.30;3.90;;;;;;;;;;143735;569;46010;-84
2021/09/05 07:40:15;;;;;;;3.95;3.35;;;;;;;;;;143731;577;47022;-84
2021/09/05 07:42:44;;;;;;;4.40;3.17;;;;;;;;;;143732;589;46010;-87
2021/09/05 07:45:11;;;;;;;5.62;3.45;;;;;;;;;;143734;644;46020;-87
2021/09/05 07:47:38;;;;;;;3.85;3.17;;;;;;;;;;143734;596;46011;-86
2021/09/05 07:50:06;;;;;;;4.37;3.53;;;;;;;;;;143733;564;46021;-87
2021/09/05 07:52:32;;;;;;;4.68;3.53;;;;;;;;;;143730;601;47010;-87
2021/09/05 07:54:59;;;;;;;3.25;2.95;;;;;;;;;;143732;606;46021;-87
2021/09/05 07:57:26;;;;;;;3.35;2.95;;;;;;;;;;143736;577;45021;-86
2021/09/05 07:59:53;;;;;;;3.70;2.85;;;;;;;;;;143732;589;46022;-86
2021/09/05 08:02:20;;;;;;;6.03;3.25;;;;;;;;;;143734;625;46011;-88
2021/09/05 08:04:47;;;;;;;3.78;3.12;;;;;;;;;;143733;564;47020;-86
2021/09/05 08:07:15;;;;;;;5.30;2.95;;;;;;;;;;143733;563;46018;-88
2021/09/05 08:09:41;;;;;;;3.90;3.20;;;;;;;;;;143734;581;46021;-87
2021/09/05 08:12:11;;;;;;;7.75;3.22;;;;;;;;;;143732;613;46010;-87
2021/09/05 08:14:41;;;;;;;9.77;3.55;;;;;;;;;;143735;598;46020;-89
2021/09/05 08:17:08;;;;;;;5.43;3.67;;;;;;;;;;143735;567;46011;-88
2021/09/05 08:19:35;;;;;;;9.88;3.60;;;;;;;;;;143733;597;47020;-87
2021/09/05 08:22:02;;;;;;;3.78;2.67;;;;;;;;;;143732;585;46010;-87
2021/09/05 08:24:29;;;;;;;7.15;2.70;;;;;;;;;;143731;624;46020;-87
2021/09/05 08:26:56;;;;;;;5.93;3.62;;;;;;;;;;143736;594;46010;-88
2021/09/05 08:29:23;;;;;;;4.45;3.00;;;;;;;;;;143732;596;46022;-87
2021/09/05 08:31:50;;;;;;;5.80;2.70;;;;;;;;;;143732;566;46010;-86
2021/09/05 08:34:17;;;;;;;4.25;2.97;;;;;;;;;;143734;573;46021;-87
2021/09/05 08:36:44;;;;;;;6.50;2.78;;;;;;;;;;143734;611;46010;-87
2021/09/05 08:39:12;;;;;;;5.00;2.65;;;;;;;;;;143732;688;46022;-87
2021/09/05 08:41:39;;;;;;;9.25;2.72;;;;;;;;;;143734;583;46010;-86
2021/09/05 08:44:09;;;;;;;5.22;3.15;;;;;;;;;;143733;574;46020;-85
2021/09/05 08:46:37;;;;;;;4.32;2.70;;;;;;;;;;143735;587;46011;-87
2021/09/05 08:49:04;;;;;;;7.72;3.37;;;;;;;;;;143733;595;47021;-86
2021/09/05 08:51:31;;;;;;;3.78;2.97;;;;;;;;;;143734;590;46010;-87
2021/09/05 08:53:59;;;;;;;3.67;3.08;;;;;;;;;;143732;582;47020;-86
2021/09/05 08:56:26;;;;;;;4.62;3.20;;;;;;;;;;143734;595;46010;-85
2021/09/05 08:58:52;;;;;;;3.97;3.17;;;;;;;;;;143732;641;47020;-86
2021/09/05 09:01:28;;;;;;;8.43;3.08;;;;;;;;;;143732;571;46010;-87
2021/09/05 09:04:10;;;;;;;4.97;3.45;;;;;;;;;;143738;592;45021;-85
2021/09/05 09:06:41;;;;;;;9.13;3.10;;;;;;;;;;143734;574;46010;-84
2021/09/05 09:09:09;;;;;;;4.45;2.62;;;;;;;;;;143728;588;48910;-85
2021/09/05 09:12:08;;;;;;;5.78;3.33;;;;;;;;;;143735;567;46010;-86
2021/09/05 09:14:43;;;;;;;6.90;2.85;;;;;;;;;;143735;633;46020;-87
2021/09/05 09:17:17;;;;;;;5.55;3.03;;;;;;;;;;143734;685;46011;-89
2021/09/05 09:19:45;;;;;;;5.15;3.35;;;;;;;;;;143733;591;46023;-87
2021/09/05 09:22:20;;;;;;;4.57;3.10;;;;;;;;;;143734;630;46010;-87
2021/09/05 09:24:53;;;;;;;4.20;2.62;;;;;;;;;;143734;569;46020;-87
2021/09/05 09:27:20;;;;;;;6.50;2.85;;;;;;;;;;143733;581;46010;-87
2021/09/05 09:29:46;;;;;;;4.20;2.90;;;;;;;;;;143734;573;46020;-87
2021/09/05 09:32:22;;;;;;;4.87;3.20;;;;;;;;;;143734;638;46010;-87
2021/09/05 09:34:50;;;;;;;5.25;2.92;;;;;;;;;;143733;570;46020;-85
2021/09/05 09:37:20;;;;;;;7.65;5.25;;;;;;;;;;143732;590;47018;-87
2021/09/05 09:39:58;;;;;;;11.50;10.10;;;;;;;;;;143732;591;46051;-87
2021/09/05 09:42:40;;;;;;;27.23;22.70;;;;;;;;;;143731;564;46010;-86
2021/09/05 09:45:12;;;;;;;7.45;5.30;;;;;;;;;;143733;593;46020;-86
2021/09/05 09:47:43;;;;;;;;;;;;;;;;;;143741;981;45021;-87
2021/09/05 09:50:11;;;;;;;13.98;9.05;;;;;;;;;;143742;620;46022;-86
2021/09/05 09:52:40;;;;;;;9.32;5.18;;;;;;;;;;143731;575;46916;-88
2021/09/05 09:55:08;;;;;;;9.05;7.65;;;;;;;;;;143732;633;46021;-87
2021/09/05 09:57:34;;;;;;;8.25;6.78;;;;;;;;;;143735;585;46012;-88
2021/09/05 10:00:03;;;;;;;8.88;7.30;;;;;;;;;;143732;569;46043;-87
2021/09/05 10:02:30;;;;;;;9.80;8.80;;;;;;;;;;143732;578;46013;-86
2021/09/05 10:04:59;;;;;;;13.25;7.78;;;;;;;;;;143733;597;46014;-89
2021/09/05 10:07:32;;;;;;;5.03;3.20;;;;;;;;;;143735;591;46012;-87
2021/09/05 10:10:02;;;;;;;21.98;17.65;;;;;;;;;;143731;565;47022;-87
2021/09/05 10:12:32;;;;;;;14.80;10.35;;;;;;;;;;143734;596;45915;-86
2021/09/05 10:14:59;;;;;;;11.20;8.25;;;;;;;;;;143734;596;46020;-86
2021/09/05 10:17:26;;;;;;;7.50;6.22;;;;;;;;;;143735;564;46042;-89
2021/09/05 10:19:54;;;;;;;12.80;9.40;;;;;;;;;;143734;564;46022;-89
2021/09/05 10:22:31;;;;;;;13.52;6.28;;;;;;;;;;143733;585;46020;-90
2021/09/05 10:25:03;;;;;;;10.82;6.55;;;;;;;;;;143734;573;46021;-89
2021/09/05 10:27:37;;;;;;;18.27;6.82;;;;;;;;;;143735;626;46012;-90
2021/09/05 10:30:21;;;;;;;;;;;;;;;;;;143739;965;47022;-91
2021/09/05 10:32:54;;;;;;;7.15;5.15;;;;;;;;;;143743;578;46021;-88
2021/09/05 10:35:50;;;;;;;8.23;6.32;;;;;;;;;;143734;632;46020;-89
2021/09/05 10:38:20;;;;;;;6.20;4.47;;;;;;;;;;143736;669;46019;-89
2021/09/05 10:40:57;;;;;;;5.25;4.60;;;;;;;;;;143734;681;46021;-90
2021/09/05 10:43:55;;;;;;;13.18;5.43;;;;;;;;;;143734;581;46010;-91
2021/09/05 10:46:37;;;;;;;6.65;3.85;;;;;;;;;;143734;581;46013;-89
2021/09/05 10:49:05;;;;;;;4.75;3.33;;;;;;;;;;143736;614;45021;-90
2021/09/05 10:51:36;;;;;;;4.53;3.55;;;;;;;;;;143734;577;46044;-88
2021/09/05 10:54:08;;;;;;;5.72;3.30;;;;;;;;;;143732;647;46010;-86
2021/09/05 10:56:45;;;;;;;5.07;3.53;;;;;;;;;;143734;576;46021;-89
2021/09/05 10:59:21;;;;;;;5.57;3.37;;;;;;;;;;143734;598;46012;-90
2021/09/05 11:01:58;;;;;;;6.97;3.65;;;;;;;;;;143734;604;46022;-88
2021/09/05 11:04:44;;;;;;;6.78;4.30;;;;;;;;;;143734;595;46010;-89
2021/09/05 11:07:30;;;;;;;5.07;3.70;;;;;;;;;;143733;583;46020;-90
2021/09/05 11:09:58;;;;;;;8.30;4.95;;;;;;;;;;143736;583;46010;-90
2021/09/05 11:12:39;;;;;;;7.80;3.65;;;;;;;;;;143736;581;46020;-88
2021/09/05 11:15:15;;;;;;;7.30;4.53;;;;;;;;;;143735;616;45021;-90
2021/09/05 11:17:52;;;;;;;5.68;4.70;;;;;;;;;;143737;600;45021;-91
2021/09/05 11:20:21;;;;;;;7.47;3.83;;;;;;;;;;143738;588;46018;-90
2021/09/05 11:22:49;;;;;;;5.97;3.35;;;;;;;;;;143734;570;46022;-91
2021/09/05 11:25:29;;;;;;;4.72;3.35;;;;;;;;;;143733;569;46918;-90
2021/09/05 11:28:09;;;;;;;5.75;3.30;;;;;;;;;;143735;680;46018;-90
2021/09/05 11:30:43;;;;;;;6.72;4.43;;;;;;;;;;143734;580;46019;-90
2021/09/05 11:33:12;;;;;;;5.80;4.25;;;;;;;;;;143735;581;46023;-87
2021/09/05 11:35:44;;;;;;;4.37;3.58;;;;;;;;;;143734;600;46010;-89
2021/09/05 11:38:26;;;;;;;;;;;;;;;;;;;;;
2021/09/05 11:41:06;;;;;;;;;;;;;;;;;;;;;
2021/09/05 11:43:36;;;;;;;4.20;2.87;;;;;;;;;;143736;671;45908;-89
2021/09/05 11:46:16;;;;;;;3.90;3.50;;;;;;;;;;143735;658;45918;-89
2021/09/05 11:49:00;;;;;;;4.35;3.67;;;;;;;;;;143734;616;46020;-90
2021/09/05 11:51:27;;;;;;;7.53;4.55;;;;;;;;;;143734;639;46020;-89
2021/09/05 11:54:05;;;;;;;5.00;3.78;;;;;;;;;;143735;594;45912;-91
2021/09/05 11:56:42;;;;;;;9.60;4.18;;;;;;;;;;143736;564;45917;-91
2021/09/05 12:02:01;;;;;;;4.68;3.67;;;;;;;;;;143740;586;45023;-91
2021/09/05 12:04:29;;;;;;;6.95;4.62;;;;;;;;;;143737;589;45022;-91
2021/09/05 12:06:57;;;;;;;8.90;3.53;;;;;;;;;;143737;575;45891;-91
2021/09/05 12:09:32;;;;;;;4.70;3.75;;;;;;;;;;143736;601;46021;-90
2021/09/05 12:12:05;;;;;;;4.07;3.03;;;;;;;;;;143738;564;46010;-88
2021/09/05 12:14:37;;;;;;;6.87;3.30;;;;;;;;;;143737;641;45910;-89
2021/09/05 12:17:43;;;;;;;5.97;3.40;;;;;;;;;;143734;714;46021;-89
2021/09/05 12:20:12;;;;;;;4.78;3.40;;;;;;;;;;143737;564;46014;-88
2021/09/05 12:22:59;;;;;;;4.82;3.28;;;;;;;;;;143737;594;46010;-89
2021/09/05 12:25:45;;;;;;;7.00;4.18;;;;;;;;;;143736;826;46023;-91
2021/09/05 12:29:02;;;;;;;6.22;3.45;;;;;;;;;;143736;570;45020;-91
2021/09/05 12:32:15;;;;;;;4.35;3.08;;;;;;;;;;143737;639;46012;-88
2021/09/05 12:35:16;;;;;;;7.37;3.20;;;;;;;;;;143736;757;46010;-89
2021/09/05 12:37:44;;;;;;;16.50;4.18;;;;;;;;;;143737;583;45022;-90
2021/09/05 12:40:19;;;;;;;6.55;3.97;;;;;;;;;;143734;767;46020;-90
2021/09/05 12:43:18;;;;;;;5.65;4.03;;;;;;;;;;143738;604;46020;-91
2021/09/05 12:45:55;;;;;;;5.03;4.28;;;;;;;;;;143739;603;45022;-90
2021/09/05 12:48:26;;;;;;;7.45;3.83;;;;;;;;;;143737;574;45909;-92
2021/09/05 12:51:20;;;;;;;5.68;3.75;;;;;;;;;;143736;851;45916;-90
2021/09/05 12:54:04;;;;;;;3.90;3.33;;;;;;;;;;143738;587;45021;-91
2021/09/05 12:56:45;;;;;;;;;;;;;;;;;;;;;
2021/09/05 12:59:16;;;;;;;5.43;4.03;;;;;;;;;;143738;571;45022;-89
2021/09/05 13:02:00;;;;;;;7.30;3.90;;;;;;;;;;143734;831;46916;-90
2021/09/05 13:04:36;;;;;;;8.73;4.22;;;;;;;;;;143737;574;45027;-90
2021/09/05 13:07:04;;;;;;;4.62;3.50;;;;;;;;;;143738;982;46020;-90
2021/09/05 13:09:32;;;;;;;6.25;3.97;;;;;;;;;;143738;711;45023;-90
2021/09/05 13:11:59;;;;;;;10.68;3.42;;;;;;;;;;143736;739;45916;-91
2021/09/05 13:14:26;;;;;;;7.47;3.65;;;;;;;;;;143737;595;45910;-91
2021/09/05 13:16:55;;;;;;;7.62;3.80;;;;;;;;;;143736;611;46010;-92
2021/09/05 13:19:22;;;;;;;8.90;4.03;;;;;;;;;;143733;594;46909;-91
2021/09/05 13:21:53;;;;;;;4.12;3.45;;;;;;;;;;143737;810;45933;-90
2021/09/05 13:24:21;;;;;;;4.20;3.70;;;;;;;;;;143737;797;45021;-91
2021/09/05 13:26:50;;;;;;;10.20;4.50;;;;;;;;;;143738;583;45020;-91
2021/09/05 13:29:32;;;;;;;;;;;;;;;;;;;;;
2021/09/05 13:32:22;;;;;;;6.53;4.62;;;;;;;;;;143737;567;45021;-90
2021/09/05 13:34:49;;;;;;;10.98;5.32;;;;;;;;;;143734;613;47012;-89
2021/09/05 13:37:25;;;;;;;12.52;6.05;;;;;;;;;;143736;598;46019;-86
2021/09/05 13:40:03;;;;;;;8.35;5.15;;;;;;;;;;143737;596;45023;-88
2021/09/05 13:42:37;;;;;;;8.45;5.70;;;;;;;;;;143737;641;45020;-87
2021/09/05 13:45:11;;;;;;;7.28;5.05;;;;;;;;;;143740;605;46021;-91
2021/09/05 13:47:42;;;;;;;9.05;5.43;;;;;;;;;;143739;591;45020;-89
2021/09/05 13:50:13;;;;;;;6.68;5.18;;;;;;;;;;143735;590;46022;-90
2021/09/05 13:53:04;;;;;;;8.88;5.28;;;;;;;;;;143737;635;45916;-88
2021/09/05 13:55:32;;;;;;;8.07;5.65;;;;;;;;;;143736;579;47020;-88
2021/09/05 13:58:01;;;;;;;6.55;5.35;;;;;;;;;;143735;575;47010;-86
2021/09/05 14:00:31;;;;;;;10.25;5.70;;;;;;;;;;143735;572;46022;-86
2021/09/05 14:03:01;;;;;;;8.05;5.32;;;;;;;;;;143735;579;46010;-85
2021/09/05 14:05:29;;;;;;;5.32;4.65;;;;;;;;;;143735;578;46020;-87
2021/09/05 14:07:56;;;;;;;12.00;5.53;;;;;;;;;;143737;571;46019;-86
2021/09/05 14:10:22;;;;;;;8.35;5.97;;;;;;;;;;143733;633;47023;-86
2021/09/05 14:12:49;;;;;;;9.45;6.22;;;;;;;;;;143735;587;46010;-85
2021/09/05 14:15:18;;;;;;;7.40;5.47;;;;;;;;;;143737;582;46021;-88
2021/09/05 14:17:45;;;;;;;10.70;6.12;;;;;;;;;;143736;580;46010;-87
2021/09/05 14:20:13;;;;;;;8.48;5.45;;;;;;;;;;143734;569;46022;-87
2021/09/05 14:22:40;;;;;;;10.73;6.07;;;;;;;;;;143735;572;46010;-87
2021/09/05 14:25:08;;;;;;;6.90;5.35;;;;;;;;;;143735;640;46020;-86
2021/09/05 14:28:04;;;;;;;6.70;5.43;;;;;;;;;;143740;573;46010;-87
2021/09/05 14:31:00;;;;;;;5.93;5.32;;;;;;;;;;143734;593;46022;-87
2021/09/05 14:48:36;;;;;;;6.87;5.55;;;;;;;;;;143737;577;46020;-87
2021/09/05 14:54:14;;;;;;;11.05;5.30;;;;;;;;;;143739;569;46012;-86
2021/09/05 14:56:41;;;;;;;7.25;5.03;;;;;;;;;;143734;635;46020;-86
2021/09/05 15:02:00;;;;;;;6.03;4.68;;;;;;;;;;143737;579;46020;-85
2021/09/05 15:04:46;;;;;;;9.30;5.60;;;;;;;;;;143733;629;47022;-85
2021/09/05 15:12:47;;;;;;;6.43;5.43;;;;;;;;;;143738;600;47010;-87
2021/09/05 15:15:15;;;;;;;9.30;4.93;;;;;;;;;;143734;578;46022;-89
2021/09/05 15:17:41;;;;;;;9.10;5.05;;;;;;;;;;143736;588;46020;-88
2021/09/05 15:20:11;;;;;;;14.90;5.25;;;;;;;;;;143734;579;47020;-86
2021/09/05 15:22:39;;;;;;;8.57;4.85;;;;;;;;;;143736;641;46019;-86
2021/09/05 15:25:07;;;;;;;7.32;5.00;;;;;;;;;;143731;604;47022;-87
2021/09/05 15:27:49;;;;;;;8.90;5.40;;;;;;;;;;143734;608;46010;-89
2021/09/05 15:30:26;;;;;;;5.93;5.32;;;;;;;;;;143735;594;46021;-86
2021/09/05 15:33:05;;;;;;;5.70;5.20;;;;;;;;;;143737;588;46020;-86
2021/09/05 15:38:59;;;;;;;9.85;5.18;;;;;;;;;;143734;584;46021;-87
2021/09/05 15:49:59;;;;;;;9.02;4.97;;;;;;;;;;143738;575;45020;-86